This is the latest recevied weather packets stored in our database for station/object HP1PAR-14. If no packets are shown the sender has not sent any weather packets the latest 10 day(s).
| Time | Temp. | Humidity | Pressure | Rain* | Wind** | Luminosity | Snow |
|---|---|---|---|---|---|---|---|
| 1788068586 | 19.44° C | 100% | 1013.2 hPa | 0 mm | - | - | - |
| 1788066785 | 19.44° C | 100% | 1013.2 hPa | 0 mm | - | - | - |
| 1788064985 | 19.44° C | 100% | 1013.3 hPa | 0 mm | - | - | - |
| 1788063184 | 19.44° C | 99% | 1013.3 hPa | 0 mm | - | - | - |
| 1788061384 | 20° C | 99% | 1013.4 hPa | 0 mm | - | - | - |
| 1788059583 | 20° C | 99% | 1013.4 hPa | 0 mm | - | - | - |
| 1788057783 | 20° C | 100% | 1013 hPa | 0 mm | - | - | - |
| 1788055982 | 20° C | 100% | 1012.6 hPa | 0 mm | - | - | - |
| 1788054182 | 20° C | 100% | 1012.3 hPa | 0 mm | - | - | - |
| 1788052381 | 20° C | 100% | 1012 hPa | 0 mm | - | - | - |
| 1788050581 | 20° C | 100% | 1011.7 hPa | 0 mm | - | - | - |
| 1788048780 | 21.11° C | 96% | 1011 hPa | 0 mm | - | - | - |
| 1788046980 | 21.11° C | 95% | 1010.7 hPa | 0 mm | - | - | - |
| 1788045179 | 21.67° C | 94% | 1010.4 hPa | 0 mm | - | - | - |
| 1788043379 | 22.22° C | 92% | 1010 hPa | 0 mm | - | - | - |
| 1788041578 | 22.22° C | 89% | 1009.7 hPa | 0 mm | - | - | - |
| 1788039778 | 22.78° C | 86% | 1009.5 hPa | 0 mm | - | - | - |
| 1788037977 | 23.33° C | 84% | 1009.4 hPa | 0 mm | - | - | - |
| 1788036177 | 23.33° C | 83% | 1009.4 hPa | 0 mm | - | - | - |
| 1788034376 | 23.33° C | 83% | 1009.6 hPa | 0 mm | - | - | - |
| 1788032576 | 23.89° C | 84% | 1010.1 hPa | 0 mm | - | - | - |
| 1788032042 | 23.89° C | 84% | 1010.1 hPa | 0 mm | - | - | - |
| 1788030242 | 23.33° C | 86% | 1010.6 hPa | 0 mm | - | - | - |
| 1788028441 | 22.78° C | 90% | 1011.9 hPa | 0 mm | - | - | - |
| 1788026641 | 22.78° C | 86% | 1012.5 hPa | 0 mm | - | - | - |
* Rain latest hour (hover to see other rain measurements)
** Current wind speed in m/s (hover to see current wind gust speed)